sensor_id;sensor_type;location;lat;lon;timestamp;pressure;altitude;pressure_sealevel;temperature;humidity
54369;BME280;40266;52.434;17.056;2023-10-31T00:01:26;98887.09;;;10.71;100.00
54369;BME280;40266;52.434;17.056;2023-10-31T00:04:09;98884.55;;;10.73;100.00
54369;BME280;40266;52.434;17.056;2023-10-31T00:07:01;98878.16;;;10.75;100.00
54369;BME280;40266;52.434;17.056;2023-10-31T00:09:48;98875.45;;;10.77;100.00
54369;BME280;40266;52.434;17.056;2023-10-31T00:12:32;98873.08;;;10.80;100.00
54369;BME280;40266;52.434;17.056;2023-10-31T00:15:18;98881.73;;;10.82;100.00
54369;BME280;40266;52.434;17.056;2023-10-31T00:18:04;98864.34;;;10.84;100.00
54369;BME280;40266;52.434;17.056;2023-10-31T00:20:50;98848.02;;;10.86;100.00
54369;BME280;40266;52.434;17.056;2023-10-31T00:23:42;98841.45;;;10.87;100.00
54369;BME280;40266;52.434;17.056;2023-10-31T00:26:27;98832.94;;;10.90;100.00
54369;BME280;40266;52.434;17.056;2023-10-31T00:29:16;98826.48;;;10.94;100.00
54369;BME280;40266;52.434;17.056;2023-10-31T00:32:00;98819.41;;;10.95;100.00
54369;BME280;40266;52.434;17.056;2023-10-31T00:34:49;98817.20;;;10.98;100.00
54369;BME280;40266;52.434;17.056;2023-10-31T00:37:40;98816.38;;;11.01;100.00
54369;BME280;40266;52.434;17.056;2023-10-31T00:40:23;98813.95;;;11.04;100.00
54369;BME280;40266;52.434;17.056;2023-10-31T00:43:11;98804.61;;;11.05;100.00
54369;BME280;40266;52.434;17.056;2023-10-31T00:46:04;98800.33;;;11.07;100.00
54369;BME280;40266;52.434;17.056;2023-10-31T00:48:53;98794.60;;;11.10;100.00
54369;BME280;40266;52.434;17.056;2023-10-31T00:51:36;98784.13;;;11.13;100.00
54369;BME280;40266;52.434;17.056;2023-10-31T00:54:30;98779.27;;;11.16;100.00
54369;BME280;40266;52.434;17.056;2023-10-31T00:57:26;98769.83;;;11.19;100.00
54369;BME280;40266;52.434;17.056;2023-10-31T01:00:13;98761.77;;;11.24;100.00
54369;BME280;40266;52.434;17.056;2023-10-31T01:03:04;98751.15;;;11.26;100.00
54369;BME280;40266;52.434;17.056;2023-10-31T01:05:59;98750.83;;;11.29;100.00
54369;BME280;40266;52.434;17.056;2023-10-31T01:08:42;98742.95;;;11.33;100.00
54369;BME280;40266;52.434;17.056;2023-10-31T01:11:39;98736.55;;;11.35;100.00
54369;BME280;40266;52.434;17.056;2023-10-31T01:17:23;98730.10;;;11.41;100.00
54369;BME280;40266;52.434;17.056;2023-10-31T01:20:11;98729.45;;;11.44;100.00
54369;BME280;40266;52.434;17.056;2023-10-31T01:22:55;98727.06;;;11.46;100.00
54369;BME280;40266;52.434;17.056;2023-10-31T01:25:42;98721.68;;;11.49;100.00
54369;BME280;40266;52.434;17.056;2023-10-31T01:28:28;98709.81;;;11.48;100.00
54369;BME280;40266;52.434;17.056;2023-10-31T01:31:35;98704.34;;;11.50;100.00
54369;BME280;40266;52.434;17.056;2023-10-31T01:34:38;98693.77;;;11.51;100.00
54369;BME280;40266;52.434;17.056;2023-10-31T01:37:25;98687.71;;;11.53;100.00
54369;BME280;40266;52.434;17.056;2023-10-31T01:40:19;98685.52;;;11.55;100.00
54369;BME280;40266;52.434;17.056;2023-10-31T01:43:06;98682.80;;;11.56;100.00
54369;BME280;40266;52.434;17.056;2023-10-31T01:46:00;98673.96;;;11.59;100.00
54369;BME280;40266;52.434;17.056;2023-10-31T01:48:47;98666.57;;;11.60;100.00
54369;BME280;40266;52.434;17.056;2023-10-31T01:51:38;98666.48;;;11.61;100.00
54369;BME280;40266;52.434;17.056;2023-10-31T01:54:33;98671.79;;;11.64;100.00
54369;BME280;40266;52.434;17.056;2023-10-31T01:57:24;98652.08;;;11.66;100.00
54369;BME280;40266;52.434;17.056;2023-10-31T02:00:08;98647.23;;;11.68;100.00
54369;BME280;40266;52.434;17.056;2023-10-31T02:02:57;98638.58;;;11.70;100.00
54369;BME280;40266;52.434;17.056;2023-10-31T02:06:01;98631.34;;;11.71;100.00
54369;BME280;40266;52.434;17.056;2023-10-31T02:08:55;98627.81;;;11.71;100.00
54369;BME280;40266;52.434;17.056;2023-10-31T02:11:45;98625.98;;;11.73;100.00
54369;BME280;40266;52.434;17.056;2023-10-31T02:14:31;98614.09;;;11.73;100.00
54369;BME280;40266;52.434;17.056;2023-10-31T02:17:22;98601.82;;;11.74;100.00
54369;BME280;40266;52.434;17.056;2023-10-31T02:20:10;98589.23;;;11.74;100.00
54369;BME280;40266;52.434;17.056;2023-10-31T02:22:57;98580.17;;;11.73;100.00
54369;BME280;40266;52.434;17.056;2023-10-31T02:25:45;98572.55;;;11.72;100.00
54369;BME280;40266;52.434;17.056;2023-10-31T02:28:32;98564.98;;;11.72;100.00
54369;BME280;40266;52.434;17.056;2023-10-31T02:31:32;98562.84;;;11.73;100.00
54369;BME280;40266;52.434;17.056;2023-10-31T02:34:18;98556.89;;;11.73;100.00
54369;BME280;40266;52.434;17.056;2023-10-31T02:37:24;98552.59;;;11.75;100.00
54369;BME280;40266;52.434;17.056;2023-10-31T02:40:19;98553.57;;;11.76;100.00
54369;BME280;40266;52.434;17.056;2023-10-31T02:43:08;98546.23;;;11.79;100.00
54369;BME280;40266;52.434;17.056;2023-10-31T02:46:08;98546.81;;;11.81;100.00
54369;BME280;40266;52.434;17.056;2023-10-31T02:52:20;98536.02;;;11.90;100.00
54369;BME280;40266;52.434;17.056;2023-10-31T02:55:15;98528.23;;;11.95;100.00
54369;BME280;40266;52.434;17.056;2023-10-31T03:01:08;98523.34;;;12.01;100.00
54369;BME280;40266;52.434;17.056;2023-10-31T03:04:00;98521.61;;;12.04;100.00
54369;BME280;40266;52.434;17.056;2023-10-31T03:06:47;98518.87;;;12.06;100.00
54369;BME280;40266;52.434;17.056;2023-10-31T03:09:41;98513.77;;;12.09;100.00
54369;BME280;40266;52.434;17.056;2023-10-31T03:12:38;98511.88;;;12.17;100.00
54369;BME280;40266;52.434;17.056;2023-10-31T03:15:21;98501.34;;;12.27;100.00
54369;BME280;40266;52.434;17.056;2023-10-31T03:18:04;98495.91;;;12.36;100.00
54369;BME280;40266;52.434;17.056;2023-10-31T03:21:06;98494.27;;;12.46;100.00
54369;BME280;40266;52.434;17.056;2023-10-31T03:23:52;98489.21;;;12.55;100.00
54369;BME280;40266;52.434;17.056;2023-10-31T03:26:39;98481.42;;;12.62;100.00
54369;BME280;40266;52.434;17.056;2023-10-31T03:29:22;98480.80;;;12.69;100.00
54369;BME280;40266;52.434;17.056;2023-10-31T03:32:29;98480.16;;;12.77;100.00
54369;BME280;40266;52.434;17.056;2023-10-31T03:35:14;98478.64;;;12.82;100.00
54369;BME280;40266;52.434;17.056;2023-10-31T03:37:58;98474.41;;;12.85;100.00
54369;BME280;40266;52.434;17.056;2023-10-31T03:40:44;98472.92;;;12.86;100.00
54369;BME280;40266;52.434;17.056;2023-10-31T03:43:32;98474.24;;;12.87;100.00
54369;BME280;40266;52.434;17.056;2023-10-31T03:46:16;98471.16;;;12.89;100.00
54369;BME280;40266;52.434;17.056;2023-10-31T03:49:22;98469.94;;;12.89;100.00
54369;BME280;40266;52.434;17.056;2023-10-31T03:52:17;98472.17;;;12.90;100.00
54369;BME280;40266;52.434;17.056;2023-10-31T03:55:16;98473.14;;;12.92;100.00
54369;BME280;40266;52.434;17.056;2023-10-31T03:58:09;98473.46;;;12.92;100.00
54369;BME280;40266;52.434;17.056;2023-10-31T04:00:52;98472.63;;;12.91;100.00
54369;BME280;40266;52.434;17.056;2023-10-31T04:03:36;98467.61;;;12.90;100.00
54369;BME280;40266;52.434;17.056;2023-10-31T04:06:24;98464.50;;;12.89;100.00
54369;BME280;40266;52.434;17.056;2023-10-31T04:09:13;98462.22;;;12.89;100.00
54369;BME280;40266;52.434;17.056;2023-10-31T04:11:56;98460.17;;;12.88;100.00
54369;BME280;40266;52.434;17.056;2023-10-31T04:14:43;98457.42;;;12.87;100.00
54369;BME280;40266;52.434;17.056;2023-10-31T04:20:42;98449.39;;;12.84;100.00
54369;BME280;40266;52.434;17.056;2023-10-31T04:23:31;98444.77;;;12.83;100.00
54369;BME280;40266;52.434;17.056;2023-10-31T04:26:17;98444.65;;;12.82;100.00
54369;BME280;40266;52.434;17.056;2023-10-31T04:29:06;98443.48;;;12.81;100.00
54369;BME280;40266;52.434;17.056;2023-10-31T04:32:08;98445.13;;;12.79;100.00
54369;BME280;40266;52.434;17.056;2023-10-31T04:34:51;98440.52;;;12.78;100.00
54369;BME280;40266;52.434;17.056;2023-10-31T04:37:35;98440.05;;;12.77;100.00
54369;BME280;40266;52.434;17.056;2023-10-31T04:40:27;98432.13;;;12.75;100.00
54369;BME280;40266;52.434;17.056;2023-10-31T04:43:13;98426.84;;;12.73;100.00
54369;BME280;40266;52.434;17.056;2023-10-31T04:45:57;98427.83;;;12.71;100.00
54369;BME280;40266;52.434;17.056;2023-10-31T04:48:42;98425.20;;;12.67;100.00
54369;BME280;40266;52.434;17.056;2023-10-31T04:51:33;98422.77;;;12.64;100.00
54369;BME280;40266;52.434;17.056;2023-10-31T04:54:16;98423.73;;;12.63;100.00
54369;BME280;40266;52.434;17.056;2023-10-31T04:57:02;98420.75;;;12.60;100.00
54369;BME280;40266;52.434;17.056;2023-10-31T04:59:49;98418.95;;;12.58;100.00
54369;BME280;40266;52.434;17.056;2023-10-31T05:02:36;98419.39;;;12.57;100.00
54369;BME280;40266;52.434;17.056;2023-10-31T05:05:22;98417.80;;;12.54;100.00
54369;BME280;40266;52.434;17.056;2023-10-31T05:08:05;98414.02;;;12.53;100.00
54369;BME280;40266;52.434;17.056;2023-10-31T05:10:49;98417.42;;;12.52;100.00
54369;BME280;40266;52.434;17.056;2023-10-31T05:13:46;98411.78;;;12.50;100.00
54369;BME280;40266;52.434;17.056;2023-10-31T05:16:39;98407.67;;;12.48;100.00
54369;BME280;40266;52.434;17.056;2023-10-31T05:19:24;98406.18;;;12.47;100.00
54369;BME280;40266;52.434;17.056;2023-10-31T05:22:08;98406.48;;;12.45;100.00
54369;BME280;40266;52.434;17.056;2023-10-31T05:25:06;98406.54;;;12.43;100.00
54369;BME280;40266;52.434;17.056;2023-10-31T05:27:50;98405.73;;;12.42;100.00
54369;BME280;40266;52.434;17.056;2023-10-31T05:30:36;98402.24;;;12.42;100.00
54369;BME280;40266;52.434;17.056;2023-10-31T05:33:22;98401.48;;;12.40;100.00
54369;BME280;40266;52.434;17.056;2023-10-31T05:36:35;98400.30;;;12.40;100.00
54369;BME280;40266;52.434;17.056;2023-10-31T05:39:42;98397.22;;;12.39;100.00
54369;BME280;40266;52.434;17.056;2023-10-31T05:42:34;98395.56;;;12.37;100.00
54369;BME280;40266;52.434;17.056;2023-10-31T05:45:30;98397.84;;;12.37;100.00
54369;BME280;40266;52.434;17.056;2023-10-31T05:48:14;98395.13;;;12.36;100.00
54369;BME280;40266;52.434;17.056;2023-10-31T05:51:34;98402.06;;;12.37;100.00
54369;BME280;40266;52.434;17.056;2023-10-31T05:54:38;98398.48;;;12.35;100.00
54369;BME280;40266;52.434;17.056;2023-10-31T05:57:31;98398.69;;;12.35;100.00
54369;BME280;40266;52.434;17.056;2023-10-31T06:00:26;98392.27;;;12.34;100.00
54369;BME280;40266;52.434;17.056;2023-10-31T06:03:21;98392.84;;;12.33;100.00
54369;BME280;40266;52.434;17.056;2023-10-31T06:06:07;98399.66;;;12.33;100.00
54369;BME280;40266;52.434;17.056;2023-10-31T06:08:54;98403.88;;;12.33;100.00
54369;BME280;40266;52.434;17.056;2023-10-31T06:11:43;98405.45;;;12.33;100.00
54369;BME280;40266;52.434;17.056;2023-10-31T06:14:37;98407.00;;;12.33;100.00
54369;BME280;40266;52.434;17.056;2023-10-31T06:17:20;98410.80;;;12.34;100.00
54369;BME280;40266;52.434;17.056;2023-10-31T06:20:10;98409.50;;;12.35;100.00
54369;BME280;40266;52.434;17.056;2023-10-31T06:22:55;98411.11;;;12.37;100.00
54369;BME280;40266;52.434;17.056;2023-10-31T06:25:46;98416.46;;;12.39;100.00
54369;BME280;40266;52.434;17.056;2023-10-31T06:31:46;98407.77;;;12.44;100.00
54369;BME280;40266;52.434;17.056;2023-10-31T06:34:47;98410.29;;;12.45;100.00
54369;BME280;40266;52.434;17.056;2023-10-31T06:37:30;98414.70;;;12.48;100.00
54369;BME280;40266;52.434;17.056;2023-10-31T06:40:13;98412.48;;;12.50;100.00
54369;BME280;40266;52.434;17.056;2023-10-31T06:43:18;98408.71;;;12.52;100.00
54369;BME280;40266;52.434;17.056;2023-10-31T06:46:04;98410.36;;;12.53;100.00
54369;BME280;40266;52.434;17.056;2023-10-31T06:48:48;98410.27;;;12.55;100.00
54369;BME280;40266;52.434;17.056;2023-10-31T06:51:35;98412.85;;;12.55;100.00
54369;BME280;40266;52.434;17.056;2023-10-31T06:54:21;98408.90;;;12.57;100.00
54369;BME280;40266;52.434;17.056;2023-10-31T06:57:17;98407.08;;;12.58;100.00
54369;BME280;40266;52.434;17.056;2023-10-31T07:00:00;98402.27;;;12.59;100.00
54369;BME280;40266;52.434;17.056;2023-10-31T07:02:44;98398.17;;;12.60;100.00
54369;BME280;40266;52.434;17.056;2023-10-31T07:05:45;98397.88;;;12.62;100.00
54369;BME280;40266;52.434;17.056;2023-10-31T07:08:43;98401.98;;;12.63;100.00
54369;BME280;40266;52.434;17.056;2023-10-31T07:11:27;98404.91;;;12.64;100.00
54369;BME280;40266;52.434;17.056;2023-10-31T07:14:13;98410.61;;;12.66;100.00
54369;BME280;40266;52.434;17.056;2023-10-31T07:17:00;98408.95;;;12.67;100.00
54369;BME280;40266;52.434;17.056;2023-10-31T07:20:05;98411.39;;;12.71;100.00
54369;BME280;40266;52.434;17.056;2023-10-31T07:23:09;98410.69;;;12.73;100.00
54369;BME280;40266;52.434;17.056;2023-10-31T07:25:52;98412.02;;;12.77;100.00
54369;BME280;40266;52.434;17.056;2023-10-31T07:28:35;98418.17;;;12.80;100.00
54369;BME280;40266;52.434;17.056;2023-10-31T07:31:21;98421.33;;;12.82;100.00
54369;BME280;40266;52.434;17.056;2023-10-31T07:34:05;98425.73;;;12.85;100.00
54369;BME280;40266;52.434;17.056;2023-10-31T07:36:48;98425.61;;;12.86;100.00
54369;BME280;40266;52.434;17.056;2023-10-31T07:39:31;98429.48;;;12.89;100.00
54369;BME280;40266;52.434;17.056;2023-10-31T07:42:18;98432.70;;;12.91;100.00
54369;BME280;40266;52.434;17.056;2023-10-31T07:45:01;98432.41;;;12.93;100.00
54369;BME280;40266;52.434;17.056;2023-10-31T07:47:44;98444.71;;;12.95;100.00
54369;BME280;40266;52.434;17.056;2023-10-31T07:50:27;98448.16;;;12.96;100.00
54369;BME280;40266;52.434;17.056;2023-10-31T07:53:13;98457.70;;;12.97;100.00
54369;BME280;40266;52.434;17.056;2023-10-31T07:55:56;98459.76;;;12.98;100.00
54369;BME280;40266;52.434;17.056;2023-10-31T07:58:40;98463.61;;;12.98;100.00
54369;BME280;40266;52.434;17.056;2023-10-31T08:01:22;98469.62;;;12.97;100.00
54369;BME280;40266;52.434;17.056;2023-10-31T08:04:06;98469.06;;;12.98;100.00
54369;BME280;40266;52.434;17.056;2023-10-31T08:06:52;98477.18;;;12.97;100.00
54369;BME280;40266;52.434;17.056;2023-10-31T08:09:36;98479.44;;;12.94;100.00
54369;BME280;40266;52.434;17.056;2023-10-31T08:12:19;98475.40;;;12.92;100.00
54369;BME280;40266;52.434;17.056;2023-10-31T08:15:05;98474.30;;;12.89;100.00
54369;BME280;40266;52.434;17.056;2023-10-31T08:17:51;98470.16;;;12.88;100.00
54369;BME280;40266;52.434;17.056;2023-10-31T08:20:34;98470.73;;;12.87;100.00
54369;BME280;40266;52.434;17.056;2023-10-31T08:23:18;98477.46;;;12.86;100.00
54369;BME280;40266;52.434;17.056;2023-10-31T08:26:01;98488.42;;;12.85;100.00
54369;BME280;40266;52.434;17.056;2023-10-31T08:28:44;98493.26;;;12.83;100.00
54369;BME280;40266;52.434;17.056;2023-10-31T08:31:27;98496.91;;;12.81;100.00
54369;BME280;40266;52.434;17.056;2023-10-31T08:34:20;98492.64;;;12.79;100.00
54369;BME280;40266;52.434;17.056;2023-10-31T08:37:03;98498.52;;;12.80;100.00
54369;BME280;40266;52.434;17.056;2023-10-31T08:39:46;98499.99;;;12.82;100.00
54369;BME280;40266;52.434;17.056;2023-10-31T08:42:30;98498.11;;;12.84;100.00
54369;BME280;40266;52.434;17.056;2023-10-31T08:45:13;98496.77;;;12.86;100.00
54369;BME280;40266;52.434;17.056;2023-10-31T08:47:57;98497.74;;;12.87;100.00
54369;BME280;40266;52.434;17.056;2023-10-31T08:50:40;98501.75;;;12.88;100.00
54369;BME280;40266;52.434;17.056;2023-10-31T08:53:24;98500.36;;;12.87;100.00
54369;BME280;40266;52.434;17.056;2023-10-31T08:56:08;98498.16;;;12.86;100.00
54369;BME280;40266;52.434;17.056;2023-10-31T08:58:51;98501.71;;;12.85;100.00
54369;BME280;40266;52.434;17.056;2023-10-31T09:01:34;98510.80;;;12.86;100.00
54369;BME280;40266;52.434;17.056;2023-10-31T09:04:18;98515.66;;;12.86;100.00
54369;BME280;40266;52.434;17.056;2023-10-31T09:07:13;98517.03;;;12.84;100.00
54369;BME280;40266;52.434;17.056;2023-10-31T09:09:57;98528.30;;;12.83;100.00
54369;BME280;40266;52.434;17.056;2023-10-31T09:12:43;98539.69;;;12.83;100.00
54369;BME280;40266;52.434;17.056;2023-10-31T09:15:27;98546.20;;;12.82;100.00
54369;BME280;40266;52.434;17.056;2023-10-31T09:18:33;98546.30;;;12.81;100.00
54369;BME280;40266;52.434;17.056;2023-10-31T09:21:19;98550.66;;;12.81;100.00
54369;BME280;40266;52.434;17.056;2023-10-31T09:24:03;98554.10;;;12.82;100.00
54369;BME280;40266;52.434;17.056;2023-10-31T09:26:50;98554.86;;;12.81;100.00
54369;BME280;40266;52.434;17.056;2023-10-31T09:29:33;98554.47;;;12.82;100.00
54369;BME280;40266;52.434;17.056;2023-10-31T09:32:24;98550.88;;;12.83;100.00
54369;BME280;40266;52.434;17.056;2023-10-31T09:35:09;98562.41;;;12.84;100.00
54369;BME280;40266;52.434;17.056;2023-10-31T09:37:53;98558.83;;;12.85;100.00
54369;BME280;40266;52.434;17.056;2023-10-31T09:40:38;98561.48;;;12.85;100.00
54369;BME280;40266;52.434;17.056;2023-10-31T09:43:21;98574.84;;;12.84;100.00
54369;BME280;40266;52.434;17.056;2023-10-31T09:46:10;98576.42;;;12.84;100.00
54369;BME280;40266;52.434;17.056;2023-10-31T09:48:53;98585.11;;;12.85;100.00
54369;BME280;40266;52.434;17.056;2023-10-31T09:51:42;98598.46;;;12.84;100.00
54369;BME280;40266;52.434;17.056;2023-10-31T09:54:26;98606.69;;;12.84;100.00
54369;BME280;40266;52.434;17.056;2023-10-31T09:57:10;98611.84;;;12.83;100.00
54369;BME280;40266;52.434;17.056;2023-10-31T09:59:54;98612.86;;;12.84;100.00
54369;BME280;40266;52.434;17.056;2023-10-31T10:02:54;98619.38;;;12.83;100.00
54369;BME280;40266;52.434;17.056;2023-10-31T10:05:40;98626.60;;;12.82;100.00
54369;BME280;40266;52.434;17.056;2023-10-31T10:08:29;98631.84;;;12.83;100.00
54369;BME280;40266;52.434;17.056;2023-10-31T10:11:21;98640.92;;;12.83;100.00
54369;BME280;40266;52.434;17.056;2023-10-31T10:14:19;98642.55;;;12.82;100.00
54369;BME280;40266;52.434;17.056;2023-10-31T10:17:22;98643.37;;;12.80;100.00
54369;BME280;40266;52.434;17.056;2023-10-31T10:20:13;98653.30;;;12.78;100.00
54369;BME280;40266;52.434;17.056;2023-10-31T10:23:03;98651.12;;;12.77;100.00
54369;BME280;40266;52.434;17.056;2023-10-31T10:25:51;98647.65;;;12.76;100.00
54369;BME280;40266;52.434;17.056;2023-10-31T10:28:38;98648.98;;;12.77;100.00
54369;BME280;40266;52.434;17.056;2023-10-31T10:31:23;98650.16;;;12.78;100.00
54369;BME280;40266;52.434;17.056;2023-10-31T10:34:09;98652.61;;;12.78;100.00
54369;BME280;40266;52.434;17.056;2023-10-31T10:36:55;98649.15;;;12.77;100.00
54369;BME280;40266;52.434;17.056;2023-10-31T10:39:41;98649.57;;;12.76;100.00
54369;BME280;40266;52.434;17.056;2023-10-31T10:42:46;98651.97;;;12.77;100.00
54369;BME280;40266;52.434;17.056;2023-10-31T10:45:30;98661.83;;;12.77;100.00
54369;BME280;40266;52.434;17.056;2023-10-31T10:48:16;98669.35;;;12.76;100.00
54369;BME280;40266;52.434;17.056;2023-10-31T10:51:07;98677.42;;;12.76;100.00
54369;BME280;40266;52.434;17.056;2023-10-31T10:54:33;98684.71;;;12.75;100.00
54369;BME280;40266;52.434;17.056;2023-10-31T10:57:37;98685.52;;;12.73;100.00
54369;BME280;40266;52.434;17.056;2023-10-31T11:00:25;98680.54;;;12.71;100.00
54369;BME280;40266;52.434;17.056;2023-10-31T11:03:10;98683.83;;;12.68;100.00
54369;BME280;40266;52.434;17.056;2023-10-31T11:05:54;98688.66;;;12.66;100.00
54369;BME280;40266;52.434;17.056;2023-10-31T11:08:37;98693.25;;;12.66;100.00
54369;BME280;40266;52.434;17.056;2023-10-31T11:11:22;98696.73;;;12.66;100.00
54369;BME280;40266;52.434;17.056;2023-10-31T11:14:06;98707.94;;;12.66;100.00
54369;BME280;40266;52.434;17.056;2023-10-31T11:16:54;98714.23;;;12.66;100.00
54369;BME280;40266;52.434;17.056;2023-10-31T11:19:38;98721.91;;;12.66;100.00
54369;BME280;40266;52.434;17.056;2023-10-31T11:22:22;98728.83;;;12.65;100.00
54369;BME280;40266;52.434;17.056;2023-10-31T11:25:08;98723.84;;;12.64;100.00
54369;BME280;40266;52.434;17.056;2023-10-31T11:28:12;98722.39;;;12.62;100.00
54369;BME280;40266;52.434;17.056;2023-10-31T11:30:56;98729.52;;;12.57;100.00
54369;BME280;40266;52.434;17.056;2023-10-31T11:33:47;98728.73;;;12.52;100.00
54369;BME280;40266;52.434;17.056;2023-10-31T11:36:31;98731.59;;;12.48;100.00
54369;BME280;40266;52.434;17.056;2023-10-31T11:39:21;98732.36;;;12.43;100.00
54369;BME280;40266;52.434;17.056;2023-10-31T11:42:17;98734.77;;;12.38;100.00
54369;BME280;40266;52.434;17.056;2023-10-31T11:45:03;98738.61;;;12.32;100.00
54369;BME280;40266;52.434;17.056;2023-10-31T11:47:52;98741.61;;;12.28;100.00
54369;BME280;40266;52.434;17.056;2023-10-31T11:50:37;98743.58;;;12.24;100.00
54369;BME280;40266;52.434;17.056;2023-10-31T11:53:20;98740.13;;;12.23;100.00
54369;BME280;40266;52.434;17.056;2023-10-31T11:56:07;98738.42;;;12.25;100.00
54369;BME280;40266;52.434;17.056;2023-10-31T11:59:02;98736.58;;;12.30;100.00
54369;BME280;40266;52.434;17.056;2023-10-31T12:01:46;98737.71;;;12.35;100.00
54369;BME280;40266;52.434;17.056;2023-10-31T12:04:35;98739.39;;;12.39;100.00
54369;BME280;40266;52.434;17.056;2023-10-31T12:07:19;98745.18;;;12.39;100.00
54369;BME280;40266;52.434;17.056;2023-10-31T12:10:02;98751.66;;;12.39;100.00
54369;BME280;40266;52.434;17.056;2023-10-31T12:12:45;98761.02;;;12.38;100.00
54369;BME280;40266;52.434;17.056;2023-10-31T12:15:28;98773.50;;;12.37;100.00
54369;BME280;40266;52.434;17.056;2023-10-31T12:18:12;98780.35;;;12.36;100.00
54369;BME280;40266;52.434;17.056;2023-10-31T12:20:56;98779.77;;;12.37;100.00
54369;BME280;40266;52.434;17.056;2023-10-31T12:26:43;98776.94;;;12.44;100.00
54369;BME280;40266;52.434;17.056;2023-10-31T12:29:27;98777.23;;;12.49;100.00
54369;BME280;40266;52.434;17.056;2023-10-31T12:32:12;98770.31;;;12.53;100.00
54369;BME280;40266;52.434;17.056;2023-10-31T12:34:58;98775.98;;;12.58;100.00
54369;BME280;40266;52.434;17.056;2023-10-31T12:37:46;98788.33;;;12.63;100.00
54369;BME280;40266;52.434;17.056;2023-10-31T12:40:41;98800.23;;;12.66;100.00
54369;BME280;40266;52.434;17.056;2023-10-31T12:43:26;98819.11;;;12.63;100.00
54369;BME280;40266;52.434;17.056;2023-10-31T12:46:30;98825.00;;;12.59;100.00
54369;BME280;40266;52.434;17.056;2023-10-31T12:49:17;98831.84;;;12.52;100.00
54369;BME280;40266;52.434;17.056;2023-10-31T12:52:04;98843.79;;;12.48;100.00
54369;BME280;40266;52.434;17.056;2023-10-31T12:54:48;98854.36;;;12.43;100.00
54369;BME280;40266;52.434;17.056;2023-10-31T12:57:35;98858.52;;;12.37;100.00
54369;BME280;40266;52.434;17.056;2023-10-31T13:00:22;98865.04;;;12.34;100.00
54369;BME280;40266;52.434;17.056;2023-10-31T13:03:09;98868.77;;;12.30;100.00
54369;BME280;40266;52.434;17.056;2023-10-31T13:05:53;98879.08;;;12.27;100.00
54369;BME280;40266;52.434;17.056;2023-10-31T13:08:38;98879.34;;;12.25;100.00
54369;BME280;40266;52.434;17.056;2023-10-31T13:11:22;98872.18;;;12.24;100.00
54369;BME280;40266;52.434;17.056;2023-10-31T13:14:11;98874.38;;;12.22;100.00
54369;BME280;40266;52.434;17.056;2023-10-31T13:16:57;98874.27;;;12.21;100.00
54369;BME280;40266;52.434;17.056;2023-10-31T13:19:40;98875.41;;;12.19;100.00
54369;BME280;40266;52.434;17.056;2023-10-31T13:22:24;98878.59;;;12.19;100.00
54369;BME280;40266;52.434;17.056;2023-10-31T13:25:13;98875.36;;;12.17;100.00
54369;BME280;40266;52.434;17.056;2023-10-31T13:28:01;98873.27;;;12.17;100.00
54369;BME280;40266;52.434;17.056;2023-10-31T13:30:47;98874.08;;;12.18;100.00
54369;BME280;40266;52.434;17.056;2023-10-31T13:33:34;98880.86;;;12.23;100.00
54369;BME280;40266;52.434;17.056;2023-10-31T13:36:21;98886.20;;;12.28;100.00
54369;BME280;40266;52.434;17.056;2023-10-31T13:39:05;98886.71;;;12.31;100.00
54369;BME280;40266;52.434;17.056;2023-10-31T13:41:49;98883.05;;;12.37;100.00
54369;BME280;40266;52.434;17.056;2023-10-31T13:44:37;98884.77;;;12.41;100.00
54369;BME280;40266;52.434;17.056;2023-10-31T13:47:21;98884.78;;;12.44;100.00
54369;BME280;40266;52.434;17.056;2023-10-31T13:50:05;98879.66;;;12.45;100.00
54369;BME280;40266;52.434;17.056;2023-10-31T13:52:53;98885.31;;;12.48;100.00
54369;BME280;40266;52.434;17.056;2023-10-31T13:55:40;98889.02;;;12.47;100.00
54369;BME280;40266;52.434;17.056;2023-10-31T13:58:23;98882.03;;;12.46;100.00
54369;BME280;40266;52.434;17.056;2023-10-31T14:01:07;98881.39;;;12.46;100.00
54369;BME280;40266;52.434;17.056;2023-10-31T14:03:53;98889.59;;;12.46;100.00
54369;BME280;40266;52.434;17.056;2023-10-31T14:06:37;98884.51;;;12.46;100.00
54369;BME280;40266;52.434;17.056;2023-10-31T14:09:31;98886.13;;;12.45;100.00
54369;BME280;40266;52.434;17.056;2023-10-31T14:12:14;98893.89;;;12.44;100.00
54369;BME280;40266;52.434;17.056;2023-10-31T14:15:18;98903.23;;;12.43;100.00
54369;BME280;40266;52.434;17.056;2023-10-31T14:18:05;98904.23;;;12.40;100.00
54369;BME280;40266;52.434;17.056;2023-10-31T14:20:51;98905.70;;;12.39;100.00
54369;BME280;40266;52.434;17.056;2023-10-31T14:23:43;98907.83;;;12.39;100.00
54369;BME280;40266;52.434;17.056;2023-10-31T14:26:48;98910.55;;;12.37;100.00
54369;BME280;40266;52.434;17.056;2023-10-31T14:29:42;98913.77;;;12.36;100.00
54369;BME280;40266;52.434;17.056;2023-10-31T14:32:28;98904.60;;;12.34;100.00
54369;BME280;40266;52.434;17.056;2023-10-31T14:35:17;98901.27;;;12.34;100.00
54369;BME280;40266;52.434;17.056;2023-10-31T14:38:13;98903.63;;;12.32;100.00
54369;BME280;40266;52.434;17.056;2023-10-31T14:41:15;98898.65;;;12.31;100.00
54369;BME280;40266;52.434;17.056;2023-10-31T14:43:59;98902.14;;;12.31;100.00
54369;BME280;40266;52.434;17.056;2023-10-31T14:46:44;98900.44;;;12.30;100.00
54369;BME280;40266;52.434;17.056;2023-10-31T14:49:48;98898.94;;;12.28;100.00